sensor_id;sensor_type;location;lat;lon;timestamp;temperature;humidity
59469;DHT22;45277;52.768;18.262;2024-02-04T00:00:08;7.50;99.90
59469;DHT22;45277;52.768;18.262;2024-02-04T00:01:40;7.50;99.90
59469;DHT22;45277;52.768;18.262;2024-02-04T00:03:11;7.40;99.90
59469;DHT22;45277;52.768;18.262;2024-02-04T00:04:43;7.40;99.90
59469;DHT22;45277;52.768;18.262;2024-02-04T00:06:14;7.50;99.90
59469;DHT22;45277;52.768;18.262;2024-02-04T00:07:45;7.40;99.90
59469;DHT22;45277;52.768;18.262;2024-02-04T00:09:17;7.40;99.90
59469;DHT22;45277;52.768;18.262;2024-02-04T00:10:49;7.40;99.90
59469;DHT22;45277;52.768;18.262;2024-02-04T00:12:21;7.40;99.90
59469;DHT22;45277;52.768;18.262;2024-02-04T00:13:52;7.40;99.90
59469;DHT22;45277;52.768;18.262;2024-02-04T00:15:23;7.40;99.90
59469;DHT22;45277;52.768;18.262;2024-02-04T00:16:55;7.40;99.90
59469;DHT22;45277;52.768;18.262;2024-02-04T00:18:26;7.40;99.90
59469;DHT22;45277;52.768;18.262;2024-02-04T00:19:57;7.40;99.90
59469;DHT22;45277;52.768;18.262;2024-02-04T00:21:29;7.40;99.90
59469;DHT22;45277;52.768;18.262;2024-02-04T00:23:00;7.40;99.90
59469;DHT22;45277;52.768;18.262;2024-02-04T00:24:31;7.30;99.90
59469;DHT22;45277;52.768;18.262;2024-02-04T00:26:03;7.30;99.90
59469;DHT22;45277;52.768;18.262;2024-02-04T00:27:34;7.30;99.90
59469;DHT22;45277;52.768;18.262;2024-02-04T00:29:05;7.20;99.90
59469;DHT22;45277;52.768;18.262;2024-02-04T00:30:37;7.20;99.90
59469;DHT22;45277;52.768;18.262;2024-02-04T00:32:08;7.10;99.90
59469;DHT22;45277;52.768;18.262;2024-02-04T00:33:39;7.10;99.90
59469;DHT22;45277;52.768;18.262;2024-02-04T00:35:11;7.00;99.90
59469;DHT22;45277;52.768;18.262;2024-02-04T00:36:42;7.00;99.90
59469;DHT22;45277;52.768;18.262;2024-02-04T00:38:13;7.00;99.90
59469;DHT22;45277;52.768;18.262;2024-02-04T00:39:45;7.00;99.90
59469;DHT22;45277;52.768;18.262;2024-02-04T00:41:16;7.00;99.90
59469;DHT22;45277;52.768;18.262;2024-02-04T00:42:47;7.00;99.90
59469;DHT22;45277;52.768;18.262;2024-02-04T00:44:19;7.00;99.90
59469;DHT22;45277;52.768;18.262;2024-02-04T00:45:50;7.00;99.90
59469;DHT22;45277;52.768;18.262;2024-02-04T00:47:21;7.00;99.90
59469;DHT22;45277;52.768;18.262;2024-02-04T00:48:53;6.90;99.90
59469;DHT22;45277;52.768;18.262;2024-02-04T00:50:24;6.90;99.90
59469;DHT22;45277;52.768;18.262;2024-02-04T00:51:55;7.00;99.90
59469;DHT22;45277;52.768;18.262;2024-02-04T00:53:27;7.00;99.90
59469;DHT22;45277;52.768;18.262;2024-02-04T00:55:04;6.90;99.90
59469;DHT22;45277;52.768;18.262;2024-02-04T00:56:35;7.00;99.90
59469;DHT22;45277;52.768;18.262;2024-02-04T00:58:09;6.90;99.90
59469;DHT22;45277;52.768;18.262;2024-02-04T00:59:40;7.00;99.90
59469;DHT22;45277;52.768;18.262;2024-02-04T01:01:11;7.00;99.90
59469;DHT22;45277;52.768;18.262;2024-02-04T01:02:43;6.90;99.90
59469;DHT22;45277;52.768;18.262;2024-02-04T01:04:15;6.90;99.90
59469;DHT22;45277;52.768;18.262;2024-02-04T01:05:46;6.90;99.90
59469;DHT22;45277;52.768;18.262;2024-02-04T01:07:20;6.90;99.90
59469;DHT22;45277;52.768;18.262;2024-02-04T01:08:52;6.90;99.90
59469;DHT22;45277;52.768;18.262;2024-02-04T01:10:23;6.90;99.90
59469;DHT22;45277;52.768;18.262;2024-02-04T01:11:54;6.90;99.90
59469;DHT22;45277;52.768;18.262;2024-02-04T01:13:28;6.90;99.90
59469;DHT22;45277;52.768;18.262;2024-02-04T01:14:59;6.90;99.90
59469;DHT22;45277;52.768;18.262;2024-02-04T01:16:31;7.00;99.90
59469;DHT22;45277;52.768;18.262;2024-02-04T01:18:02;6.90;99.90
59469;DHT22;45277;52.768;18.262;2024-02-04T01:19:33;6.90;99.90
59469;DHT22;45277;52.768;18.262;2024-02-04T01:21:05;6.90;99.90
59469;DHT22;45277;52.768;18.262;2024-02-04T01:22:36;6.90;99.90
59469;DHT22;45277;52.768;18.262;2024-02-04T01:24:07;6.90;99.90
59469;DHT22;45277;52.768;18.262;2024-02-04T01:25:39;6.90;99.90
59469;DHT22;45277;52.768;18.262;2024-02-04T01:27:10;6.90;99.90
59469;DHT22;45277;52.768;18.262;2024-02-04T01:28:41;6.90;99.90
59469;DHT22;45277;52.768;18.262;2024-02-04T01:30:13;7.00;99.90
59469;DHT22;45277;52.768;18.262;2024-02-04T01:31:44;6.90;99.90
59469;DHT22;45277;52.768;18.262;2024-02-04T01:33:15;6.90;99.90
59469;DHT22;45277;52.768;18.262;2024-02-04T01:34:47;7.00;99.90
59469;DHT22;45277;52.768;18.262;2024-02-04T01:36:18;7.00;99.90
59469;DHT22;45277;52.768;18.262;2024-02-04T01:37:49;7.00;99.90
59469;DHT22;45277;52.768;18.262;2024-02-04T01:39:20;7.00;99.90
59469;DHT22;45277;52.768;18.262;2024-02-04T01:40:52;7.00;99.90
59469;DHT22;45277;52.768;18.262;2024-02-04T01:42:24;7.00;99.90
59469;DHT22;45277;52.768;18.262;2024-02-04T01:43:56;7.00;99.90
59469;DHT22;45277;52.768;18.262;2024-02-04T01:45:27;6.90;99.90
59469;DHT22;45277;52.768;18.262;2024-02-04T01:46:58;6.90;99.90
59469;DHT22;45277;52.768;18.262;2024-02-04T01:48:30;6.90;99.90
59469;DHT22;45277;52.768;18.262;2024-02-04T01:50:03;6.90;99.90
59469;DHT22;45277;52.768;18.262;2024-02-04T01:51:35;6.90;99.90
59469;DHT22;45277;52.768;18.262;2024-02-04T01:53:06;6.80;99.90
59469;DHT22;45277;52.768;18.262;2024-02-04T01:54:40;6.80;99.90
59469;DHT22;45277;52.768;18.262;2024-02-04T01:56:13;6.80;99.90
59469;DHT22;45277;52.768;18.262;2024-02-04T01:57:44;6.80;99.90
59469;DHT22;45277;52.768;18.262;2024-02-04T01:59:19;6.80;99.90
59469;DHT22;45277;52.768;18.262;2024-02-04T02:00:51;6.90;99.90
59469;DHT22;45277;52.768;18.262;2024-02-04T02:02:25;6.90;99.90
59469;DHT22;45277;52.768;18.262;2024-02-04T02:03:57;6.90;99.90
59469;DHT22;45277;52.768;18.262;2024-02-04T02:05:28;6.90;99.90
59469;DHT22;45277;52.768;18.262;2024-02-04T02:07:00;6.90;99.90
59469;DHT22;45277;52.768;18.262;2024-02-04T02:08:32;6.90;99.90
59469;DHT22;45277;52.768;18.262;2024-02-04T02:10:03;6.90;99.90
59469;DHT22;45277;52.768;18.262;2024-02-04T02:11:41;6.90;99.90
59469;DHT22;45277;52.768;18.262;2024-02-04T02:13:29;6.90;99.90
59469;DHT22;45277;52.768;18.262;2024-02-04T02:15:23;6.90;99.90
59469;DHT22;45277;52.768;18.262;2024-02-04T02:16:58;6.90;99.90
59469;DHT22;45277;52.768;18.262;2024-02-04T02:18:36;6.90;99.90
59469;DHT22;45277;52.768;18.262;2024-02-04T02:20:13;6.90;99.90
59469;DHT22;45277;52.768;18.262;2024-02-04T02:24:03;6.90;99.90
59469;DHT22;45277;52.768;18.262;2024-02-04T02:25:36;6.90;99.90
59469;DHT22;45277;52.768;18.262;2024-02-04T02:27:08;6.90;99.90
59469;DHT22;45277;52.768;18.262;2024-02-04T02:28:41;6.80;99.90
59469;DHT22;45277;52.768;18.262;2024-02-04T02:30:12;6.80;99.90
59469;DHT22;45277;52.768;18.262;2024-02-04T02:31:43;6.80;99.90
59469;DHT22;45277;52.768;18.262;2024-02-04T02:33:15;6.80;99.90
59469;DHT22;45277;52.768;18.262;2024-02-04T02:34:47;6.80;99.90
59469;DHT22;45277;52.768;18.262;2024-02-04T02:36:21;6.70;99.90
59469;DHT22;45277;52.768;18.262;2024-02-04T02:38:08;6.70;99.90
59469;DHT22;45277;52.768;18.262;2024-02-04T02:39:48;6.70;99.90
59469;DHT22;45277;52.768;18.262;2024-02-04T02:41:20;6.60;99.90
59469;DHT22;45277;52.768;18.262;2024-02-04T02:42:52;6.60;99.90
59469;DHT22;45277;52.768;18.262;2024-02-04T02:44:26;6.50;99.90
59469;DHT22;45277;52.768;18.262;2024-02-04T02:45:58;6.50;99.90
59469;DHT22;45277;52.768;18.262;2024-02-04T02:47:29;6.50;99.90
59469;DHT22;45277;52.768;18.262;2024-02-04T02:49:01;6.40;99.90
59469;DHT22;45277;52.768;18.262;2024-02-04T02:50:32;6.30;99.90
59469;DHT22;45277;52.768;18.262;2024-02-04T02:52:04;6.30;99.90
59469;DHT22;45277;52.768;18.262;2024-02-04T02:53:36;6.30;99.90
59469;DHT22;45277;52.768;18.262;2024-02-04T02:55:07;6.30;99.90
59469;DHT22;45277;52.768;18.262;2024-02-04T02:56:39;6.30;99.90
59469;DHT22;45277;52.768;18.262;2024-02-04T02:58:10;6.30;99.90
59469;DHT22;45277;52.768;18.262;2024-02-04T02:59:41;6.40;99.90
59469;DHT22;45277;52.768;18.262;2024-02-04T03:01:12;6.40;99.90
59469;DHT22;45277;52.768;18.262;2024-02-04T03:02:44;6.30;99.90
59469;DHT22;45277;52.768;18.262;2024-02-04T03:04:15;6.30;99.90
59469;DHT22;45277;52.768;18.262;2024-02-04T03:05:46;6.30;99.90
59469;DHT22;45277;52.768;18.262;2024-02-04T03:07:18;6.20;99.90
59469;DHT22;45277;52.768;18.262;2024-02-04T03:08:49;6.20;99.90
59469;DHT22;45277;52.768;18.262;2024-02-04T03:10:21;6.10;99.90
59469;DHT22;45277;52.768;18.262;2024-02-04T03:11:52;6.00;99.90
59469;DHT22;45277;52.768;18.262;2024-02-04T03:13:23;6.00;99.90
59469;DHT22;45277;52.768;18.262;2024-02-04T03:14:54;6.00;99.90
59469;DHT22;45277;52.768;18.262;2024-02-04T03:16:26;6.00;99.90
59469;DHT22;45277;52.768;18.262;2024-02-04T03:17:57;5.90;99.90
59469;DHT22;45277;52.768;18.262;2024-02-04T03:19:28;5.90;99.90
59469;DHT22;45277;52.768;18.262;2024-02-04T03:21:00;5.90;99.90
59469;DHT22;45277;52.768;18.262;2024-02-04T03:22:31;5.80;99.90
59469;DHT22;45277;52.768;18.262;2024-02-04T03:24:02;5.90;99.90
59469;DHT22;45277;52.768;18.262;2024-02-04T03:25:33;5.90;99.90
59469;DHT22;45277;52.768;18.262;2024-02-04T03:27:05;5.90;99.90
59469;DHT22;45277;52.768;18.262;2024-02-04T03:28:36;5.90;99.90
59469;DHT22;45277;52.768;18.262;2024-02-04T03:30:08;5.90;99.90
59469;DHT22;45277;52.768;18.262;2024-02-04T03:31:39;6.00;99.90
59469;DHT22;45277;52.768;18.262;2024-02-04T03:33:10;6.00;99.90
59469;DHT22;45277;52.768;18.262;2024-02-04T03:34:42;6.00;99.90
59469;DHT22;45277;52.768;18.262;2024-02-04T03:36:18;6.10;99.90
59469;DHT22;45277;52.768;18.262;2024-02-04T03:37:49;6.10;99.90
59469;DHT22;45277;52.768;18.262;2024-02-04T03:39:20;6.00;99.90
59469;DHT22;45277;52.768;18.262;2024-02-04T03:40:52;6.00;99.90
59469;DHT22;45277;52.768;18.262;2024-02-04T03:42:23;6.00;99.90
59469;DHT22;45277;52.768;18.262;2024-02-04T03:43:54;5.90;99.90
59469;DHT22;45277;52.768;18.262;2024-02-04T03:45:26;6.00;99.90
59469;DHT22;45277;52.768;18.262;2024-02-04T03:46:57;6.00;99.90
59469;DHT22;45277;52.768;18.262;2024-02-04T03:48:29;6.00;99.90
59469;DHT22;45277;52.768;18.262;2024-02-04T03:50:00;6.00;99.90
59469;DHT22;45277;52.768;18.262;2024-02-04T03:51:31;6.00;99.90
59469;DHT22;45277;52.768;18.262;2024-02-04T03:53:03;6.00;99.90
59469;DHT22;45277;52.768;18.262;2024-02-04T03:54:34;6.00;99.90
59469;DHT22;45277;52.768;18.262;2024-02-04T03:56:05;6.00;99.90
59469;DHT22;45277;52.768;18.262;2024-02-04T03:57:37;6.00;99.90
59469;DHT22;45277;52.768;18.262;2024-02-04T03:59:08;6.10;99.90
59469;DHT22;45277;52.768;18.262;2024-02-04T04:00:41;6.10;99.90
59469;DHT22;45277;52.768;18.262;2024-02-04T04:02:13;6.10;99.90
59469;DHT22;45277;52.768;18.262;2024-02-04T04:03:44;6.10;99.90
59469;DHT22;45277;52.768;18.262;2024-02-04T04:05:15;6.10;99.90
59469;DHT22;45277;52.768;18.262;2024-02-04T04:06:47;6.10;99.90
59469;DHT22;45277;52.768;18.262;2024-02-04T04:08:19;6.10;99.90
59469;DHT22;45277;52.768;18.262;2024-02-04T04:09:50;6.00;99.90
59469;DHT22;45277;52.768;18.262;2024-02-04T04:11:22;6.00;99.90
59469;DHT22;45277;52.768;18.262;2024-02-04T04:12:53;6.00;99.90
59469;DHT22;45277;52.768;18.262;2024-02-04T04:14:24;6.10;99.90
59469;DHT22;45277;52.768;18.262;2024-02-04T04:15:55;6.10;99.90
59469;DHT22;45277;52.768;18.262;2024-02-04T04:17:27;6.00;99.90
59469;DHT22;45277;52.768;18.262;2024-02-04T04:18:58;6.10;99.90
59469;DHT22;45277;52.768;18.262;2024-02-04T04:20:32;6.10;99.90
59469;DHT22;45277;52.768;18.262;2024-02-04T04:22:03;6.10;99.90
59469;DHT22;45277;52.768;18.262;2024-02-04T04:23:35;6.10;99.90
59469;DHT22;45277;52.768;18.262;2024-02-04T04:25:06;6.10;99.90
59469;DHT22;45277;52.768;18.262;2024-02-04T04:26:38;6.00;99.90
59469;DHT22;45277;52.768;18.262;2024-02-04T04:28:09;6.10;99.90
59469;DHT22;45277;52.768;18.262;2024-02-04T04:29:41;6.10;99.90
59469;DHT22;45277;52.768;18.262;2024-02-04T04:31:12;6.10;99.90
59469;DHT22;45277;52.768;18.262;2024-02-04T04:32:43;6.00;99.90
59469;DHT22;45277;52.768;18.262;2024-02-04T04:34:15;6.00;99.90
59469;DHT22;45277;52.768;18.262;2024-02-04T04:35:46;5.90;99.90
59469;DHT22;45277;52.768;18.262;2024-02-04T04:37:17;6.00;99.90
59469;DHT22;45277;52.768;18.262;2024-02-04T04:38:48;5.90;99.90
59469;DHT22;45277;52.768;18.262;2024-02-04T04:40:21;5.90;99.90
59469;DHT22;45277;52.768;18.262;2024-02-04T04:41:52;5.80;99.90
59469;DHT22;45277;52.768;18.262;2024-02-04T04:43:24;5.80;99.90
59469;DHT22;45277;52.768;18.262;2024-02-04T04:44:55;5.70;99.90
59469;DHT22;45277;52.768;18.262;2024-02-04T04:46:26;5.70;99.90
59469;DHT22;45277;52.768;18.262;2024-02-04T04:47:58;5.70;99.90
59469;DHT22;45277;52.768;18.262;2024-02-04T04:49:29;5.60;99.90
59469;DHT22;45277;52.768;18.262;2024-02-04T04:51:00;5.60;99.90
59469;DHT22;45277;52.768;18.262;2024-02-04T04:52:32;5.50;99.90
59469;DHT22;45277;52.768;18.262;2024-02-04T04:54:03;5.50;99.90
59469;DHT22;45277;52.768;18.262;2024-02-04T04:55:34;5.50;99.90
59469;DHT22;45277;52.768;18.262;2024-02-04T04:57:06;5.50;99.90
59469;DHT22;45277;52.768;18.262;2024-02-04T04:58:37;5.50;99.90
59469;DHT22;45277;52.768;18.262;2024-02-04T05:00:08;5.50;99.90
59469;DHT22;45277;52.768;18.262;2024-02-04T05:01:48;5.40;99.90
59469;DHT22;45277;52.768;18.262;2024-02-04T05:03:19;5.40;99.90
59469;DHT22;45277;52.768;18.262;2024-02-04T05:04:50;5.40;99.90
59469;DHT22;45277;52.768;18.262;2024-02-04T05:06:22;5.30;99.90
59469;DHT22;45277;52.768;18.262;2024-02-04T05:07:53;5.30;99.90
59469;DHT22;45277;52.768;18.262;2024-02-04T05:09:24;5.30;99.90
59469;DHT22;45277;52.768;18.262;2024-02-04T05:10:56;5.40;99.90
59469;DHT22;45277;52.768;18.262;2024-02-04T05:12:27;5.30;99.90
59469;DHT22;45277;52.768;18.262;2024-02-04T05:13:58;5.30;99.90
59469;DHT22;45277;52.768;18.262;2024-02-04T05:15:29;5.30;99.90
59469;DHT22;45277;52.768;18.262;2024-02-04T05:17:00;5.30;99.90
59469;DHT22;45277;52.768;18.262;2024-02-04T05:18:32;5.30;99.90
59469;DHT22;45277;52.768;18.262;2024-02-04T05:20:03;5.20;99.90
59469;DHT22;45277;52.768;18.262;2024-02-04T05:21:38;5.20;99.90
59469;DHT22;45277;52.768;18.262;2024-02-04T05:23:10;5.10;99.90
59469;DHT22;45277;52.768;18.262;2024-02-04T05:24:41;5.10;99.90
59469;DHT22;45277;52.768;18.262;2024-02-04T05:26:13;5.10;99.90
59469;DHT22;45277;52.768;18.262;2024-02-04T05:27:44;5.10;99.90
59469;DHT22;45277;52.768;18.262;2024-02-04T05:29:15;5.20;99.90
59469;DHT22;45277;52.768;18.262;2024-02-04T05:30:47;5.20;99.90
59469;DHT22;45277;52.768;18.262;2024-02-04T05:32:18;5.20;99.90
59469;DHT22;45277;52.768;18.262;2024-02-04T05:33:52;5.20;99.90
59469;DHT22;45277;52.768;18.262;2024-02-04T05:35:23;5.30;99.90
59469;DHT22;45277;52.768;18.262;2024-02-04T05:36:54;5.30;99.90
59469;DHT22;45277;52.768;18.262;2024-02-04T05:38:25;5.30;99.90
59469;DHT22;45277;52.768;18.262;2024-02-04T05:39:57;5.30;99.90
59469;DHT22;45277;52.768;18.262;2024-02-04T05:41:28;5.30;99.90
59469;DHT22;45277;52.768;18.262;2024-02-04T05:42:59;5.40;99.90
59469;DHT22;45277;52.768;18.262;2024-02-04T05:44:30;5.40;99.90
59469;DHT22;45277;52.768;18.262;2024-02-04T05:46:02;5.40;99.90
59469;DHT22;45277;52.768;18.262;2024-02-04T05:47:33;5.30;99.90
59469;DHT22;45277;52.768;18.262;2024-02-04T05:49:05;5.30;99.90
59469;DHT22;45277;52.768;18.262;2024-02-04T05:50:36;5.30;99.90
59469;DHT22;45277;52.768;18.262;2024-02-04T05:52:08;5.30;99.90
59469;DHT22;45277;52.768;18.262;2024-02-04T05:53:39;5.40;99.90
59469;DHT22;45277;52.768;18.262;2024-02-04T05:55:10;5.40;99.90
59469;DHT22;45277;52.768;18.262;2024-02-04T05:56:42;5.50;99.90
59469;DHT22;45277;52.768;18.262;2024-02-04T05:58:13;5.50;99.90
59469;DHT22;45277;52.768;18.262;2024-02-04T05:59:44;5.50;99.90
59469;DHT22;45277;52.768;18.262;2024-02-04T06:01:18;5.50;99.90
59469;DHT22;45277;52.768;18.262;2024-02-04T06:02:49;5.40;99.90
59469;DHT22;45277;52.768;18.262;2024-02-04T06:04:20;5.40;99.90
59469;DHT22;45277;52.768;18.262;2024-02-04T06:05:52;5.40;99.90
59469;DHT22;45277;52.768;18.262;2024-02-04T06:07:23;5.40;99.90
59469;DHT22;45277;52.768;18.262;2024-02-04T06:08:54;5.50;99.90
59469;DHT22;45277;52.768;18.262;2024-02-04T06:10:26;5.50;99.90
59469;DHT22;45277;52.768;18.262;2024-02-04T06:11:57;5.40;99.90
59469;DHT22;45277;52.768;18.262;2024-02-04T06:13:28;5.40;99.90
59469;DHT22;45277;52.768;18.262;2024-02-04T06:14:59;5.40;99.90
59469;DHT22;45277;52.768;18.262;2024-02-04T06:16:31;5.40;99.90
59469;DHT22;45277;52.768;18.262;2024-02-04T06:18:05;5.50;99.90
59469;DHT22;45277;52.768;18.262;2024-02-04T06:19:36;5.50;99.90
59469;DHT22;45277;52.768;18.262;2024-02-04T06:21:08;5.50;99.90
59469;DHT22;45277;52.768;18.262;2024-02-04T06:22:39;5.60;99.90
59469;DHT22;45277;52.768;18.262;2024-02-04T06:24:10;5.50;99.90
59469;DHT22;45277;52.768;18.262;2024-02-04T06:25:42;5.40;99.90
59469;DHT22;45277;52.768;18.262;2024-02-04T06:27:13;5.40;99.90
59469;DHT22;45277;52.768;18.262;2024-02-04T06:28:45;5.40;99.90
59469;DHT22;45277;52.768;18.262;2024-02-04T06:30:17;5.40;99.90
59469;DHT22;45277;52.768;18.262;2024-02-04T06:31:48;5.30;99.90
59469;DHT22;45277;52.768;18.262;2024-02-04T06:33:20;5.30;99.90
59469;DHT22;45277;52.768;18.262;2024-02-04T06:34:51;5.30;99.90
59469;DHT22;45277;52.768;18.262;2024-02-04T06:36:25;5.20;99.90
59469;DHT22;45277;52.768;18.262;2024-02-04T06:37:56;5.20;99.90
59469;DHT22;45277;52.768;18.262;2024-02-04T06:39:27;5.20;99.90
59469;DHT22;45277;52.768;18.262;2024-02-04T06:40:58;5.20;99.90
59469;DHT22;45277;52.768;18.262;2024-02-04T06:42:30;5.20;99.90
59469;DHT22;45277;52.768;18.262;2024-02-04T06:44:03;5.20;99.90
59469;DHT22;45277;52.768;18.262;2024-02-04T06:45:35;5.20;99.90
59469;DHT22;45277;52.768;18.262;2024-02-04T06:47:06;5.20;99.90
59469;DHT22;45277;52.768;18.262;2024-02-04T06:48:40;5.10;99.90
59469;DHT22;45277;52.768;18.262;2024-02-04T06:50:11;5.10;99.90
59469;DHT22;45277;52.768;18.262;2024-02-04T06:51:47;5.10;99.90
59469;DHT22;45277;52.768;18.262;2024-02-04T06:53:18;5.20;99.90
59469;DHT22;45277;52.768;18.262;2024-02-04T06:54:50;5.10;99.90
59469;DHT22;45277;52.768;18.262;2024-02-04T06:56:21;5.10;99.90
59469;DHT22;45277;52.768;18.262;2024-02-04T06:57:52;5.20;99.90
59469;DHT22;45277;52.768;18.262;2024-02-04T06:59:23;5.20;99.90
59469;DHT22;45277;52.768;18.262;2024-02-04T07:00:55;5.20;99.90
59469;DHT22;45277;52.768;18.262;2024-02-04T07:02:26;5.20;99.90
59469;DHT22;45277;52.768;18.262;2024-02-04T07:03:57;5.30;99.90
59469;DHT22;45277;52.768;18.262;2024-02-04T07:05:29;5.30;99.90
59469;DHT22;45277;52.768;18.262;2024-02-04T07:07:02;5.30;99.90
59469;DHT22;45277;52.768;18.262;2024-02-04T07:08:33;5.30;99.90
59469;DHT22;45277;52.768;18.262;2024-02-04T07:10:05;5.30;99.90
59469;DHT22;45277;52.768;18.262;2024-02-04T07:11:36;5.40;99.90
59469;DHT22;45277;52.768;18.262;2024-02-04T07:13:08;5.30;99.90
59469;DHT22;45277;52.768;18.262;2024-02-04T07:14:42;5.40;99.90
59469;DHT22;45277;52.768;18.262;2024-02-04T07:16:13;5.40;99.90
59469;DHT22;45277;52.768;18.262;2024-02-04T07:17:45;5.40;99.90
59469;DHT22;45277;52.768;18.262;2024-02-04T07:19:16;5.40;99.90
59469;DHT22;45277;52.768;18.262;2024-02-04T07:20:48;5.40;99.90
59469;DHT22;45277;52.768;18.262;2024-02-04T07:22:19;5.40;99.90
59469;DHT22;45277;52.768;18.262;2024-02-04T07:23:51;5.40;99.90
59469;DHT22;45277;52.768;18.262;2024-02-04T07:25:22;5.40;99.90
59469;DHT22;45277;52.768;18.262;2024-02-04T07:26:53;5.40;99.90
59469;DHT22;45277;52.768;18.262;2024-02-04T07:28:25;5.50;99.90
59469;DHT22;45277;52.768;18.262;2024-02-04T07:29:56;5.50;99.90
59469;DHT22;45277;52.768;18.262;2024-02-04T07:31:28;5.50;99.90
59469;DHT22;45277;52.768;18.262;2024-02-04T07:33:00;5.50;99.90
59469;DHT22;45277;52.768;18.262;2024-02-04T07:34:31;5.60;99.90
59469;DHT22;45277;52.768;18.262;2024-02-04T07:36:02;5.60;99.90
59469;DHT22;45277;52.768;18.262;2024-02-04T07:37:34;5.70;99.90
59469;DHT22;45277;52.768;18.262;2024-02-04T07:39:05;5.70;99.90
59469;DHT22;45277;52.768;18.262;2024-02-04T07:40:37;5.80;99.90
59469;DHT22;45277;52.768;18.262;2024-02-04T07:42:08;5.70;99.90
59469;DHT22;45277;52.768;18.262;2024-02-04T07:43:39;5.70;99.90
59469;DHT22;45277;52.768;18.262;2024-02-04T07:45:11;5.80;99.90
59469;DHT22;45277;52.768;18.262;2024-02-04T07:46:42;5.80;99.90
59469;DHT22;45277;52.768;18.262;2024-02-04T07:48:13;5.80;99.90
59469;DHT22;45277;52.768;18.262;2024-02-04T07:49:45;5.80;99.90
59469;DHT22;45277;52.768;18.262;2024-02-04T07:51:16;5.80;99.90
59469;DHT22;45277;52.768;18.262;2024-02-04T07:52:48;5.80;99.90
59469;DHT22;45277;52.768;18.262;2024-02-04T07:54:19;5.80;99.90
59469;DHT22;45277;52.768;18.262;2024-02-04T07:55:51;5.80;99.90
59469;DHT22;45277;52.768;18.262;2024-02-04T07:57:22;5.80;99.90
59469;DHT22;45277;52.768;18.262;2024-02-04T07:58:53;5.80;99.90
59469;DHT22;45277;52.768;18.262;2024-02-04T08:00:25;5.80;99.90
59469;DHT22;45277;52.768;18.262;2024-02-04T08:01:56;5.80;99.90
59469;DHT22;45277;52.768;18.262;2024-02-04T08:03:27;5.80;99.90
59469;DHT22;45277;52.768;18.262;2024-02-04T08:04:58;5.80;99.90
59469;DHT22;45277;52.768;18.262;2024-02-04T08:06:30;5.80;99.90
59469;DHT22;45277;52.768;18.262;2024-02-04T08:08:01;5.80;99.90
59469;DHT22;45277;52.768;18.262;2024-02-04T08:09:33;5.90;99.90
59469;DHT22;45277;52.768;18.262;2024-02-04T08:11:04;5.90;99.90
59469;DHT22;45277;52.768;18.262;2024-02-04T08:12:35;6.00;99.90
59469;DHT22;45277;52.768;18.262;2024-02-04T08:14:07;6.00;99.90
59469;DHT22;45277;52.768;18.262;2024-02-04T08:15:38;6.00;99.90
59469;DHT22;45277;52.768;18.262;2024-02-04T08:17:09;6.00;99.90
59469;DHT22;45277;52.768;18.262;2024-02-04T08:18:41;6.00;99.90
59469;DHT22;45277;52.768;18.262;2024-02-04T08:20:12;6.00;99.90
59469;DHT22;45277;52.768;18.262;2024-02-04T08:21:44;6.00;99.90
59469;DHT22;45277;52.768;18.262;2024-02-04T08:23:15;6.10;99.90
59469;DHT22;45277;52.768;18.262;2024-02-04T08:24:46;6.00;99.90
59469;DHT22;45277;52.768;18.262;2024-02-04T08:26:18;6.00;99.90
59469;DHT22;45277;52.768;18.262;2024-02-04T08:27:49;6.00;99.90
59469;DHT22;45277;52.768;18.262;2024-02-04T08:29:20;6.10;99.90
59469;DHT22;45277;52.768;18.262;2024-02-04T08:30:51;6.10;99.90
59469;DHT22;45277;52.768;18.262;2024-02-04T08:32:24;6.10;99.90
59469;DHT22;45277;52.768;18.262;2024-02-04T08:33:55;6.10;99.90
59469;DHT22;45277;52.768;18.262;2024-02-04T08:35:26;6.10;99.90
59469;DHT22;45277;52.768;18.262;2024-02-04T08:36:57;6.20;99.90
59469;DHT22;45277;52.768;18.262;2024-02-04T08:38:29;6.20;99.90
59469;DHT22;45277;52.768;18.262;2024-02-04T08:40:00;6.20;99.90
59469;DHT22;45277;52.768;18.262;2024-02-04T08:41:32;6.20;99.90
59469;DHT22;45277;52.768;18.262;2024-02-04T08:43:03;6.20;99.90
59469;DHT22;45277;52.768;18.262;2024-02-04T08:44:34;6.20;99.90
59469;DHT22;45277;52.768;18.262;2024-02-04T08:46:05;6.20;99.90
59469;DHT22;45277;52.768;18.262;2024-02-04T08:47:37;6.20;99.90
59469;DHT22;45277;52.768;18.262;2024-02-04T08:49:08;6.20;99.90
59469;DHT22;45277;52.768;18.262;2024-02-04T08:50:39;6.30;99.90
59469;DHT22;45277;52.768;18.262;2024-02-04T08:52:10;6.30;99.90
59469;DHT22;45277;52.768;18.262;2024-02-04T08:53:42;6.30;99.90
59469;DHT22;45277;52.768;18.262;2024-02-04T08:55:14;6.40;99.90
59469;DHT22;45277;52.768;18.262;2024-02-04T08:56:45;6.40;99.90
59469;DHT22;45277;52.768;18.262;2024-02-04T08:58:16;6.50;99.90
59469;DHT22;45277;52.768;18.262;2024-02-04T08:59:47;6.50;99.90
59469;DHT22;45277;52.768;18.262;2024-02-04T09:01:19;6.50;99.90
59469;DHT22;45277;52.768;18.262;2024-02-04T09:02:50;6.60;99.90
59469;DHT22;45277;52.768;18.262;2024-02-04T09:04:22;6.60;99.90
59469;DHT22;45277;52.768;18.262;2024-02-04T09:05:53;6.60;99.90
59469;DHT22;45277;52.768;18.262;2024-02-04T09:07:25;6.60;99.90
59469;DHT22;45277;52.768;18.262;2024-02-04T09:08:57;6.60;99.90
59469;DHT22;45277;52.768;18.262;2024-02-04T09:10:28;6.60;99.90
59469;DHT22;45277;52.768;18.262;2024-02-04T09:11:59;6.60;99.90
59469;DHT22;45277;52.768;18.262;2024-02-04T09:13:31;6.60;99.90
59469;DHT22;45277;52.768;18.262;2024-02-04T09:15:02;6.60;99.90
59469;DHT22;45277;52.768;18.262;2024-02-04T09:16:38;6.70;99.90
59469;DHT22;45277;52.768;18.262;2024-02-04T09:18:10;6.70;99.90
59469;DHT22;45277;52.768;18.262;2024-02-04T09:19:41;6.70;99.90
59469;DHT22;45277;52.768;18.262;2024-02-04T09:21:12;6.70;99.90
59469;DHT22;45277;52.768;18.262;2024-02-04T09:22:44;6.70;99.90
59469;DHT22;45277;52.768;18.262;2024-02-04T09:24:15;6.80;99.90
59469;DHT22;45277;52.768;18.262;2024-02-04T09:25:46;6.80;99.90
59469;DHT22;45277;52.768;18.262;2024-02-04T09:27:18;6.90;99.90
59469;DHT22;45277;52.768;18.262;2024-02-04T09:28:49;6.90;99.90
59469;DHT22;45277;52.768;18.262;2024-02-04T09:30:20;6.90;99.90
59469;DHT22;45277;52.768;18.262;2024-02-04T09:31:52;6.90;99.90
59469;DHT22;45277;52.768;18.262;2024-02-04T09:33:24;7.00;99.90
59469;DHT22;45277;52.768;18.262;2024-02-04T09:34:56;7.00;99.90
59469;DHT22;45277;52.768;18.262;2024-02-04T09:36:27;7.00;99.90
59469;DHT22;45277;52.768;18.262;2024-02-04T09:37:58;7.00;99.90
59469;DHT22;45277;52.768;18.262;2024-02-04T09:39:29;7.10;99.90
59469;DHT22;45277;52.768;18.262;2024-02-04T09:41:01;7.00;99.90